X  Fermer Données météorologiques d'aviation de Metar        LFLY LYON Saint Exupéry
Température
17°C Température
13°C Point de rosée
77% Humidité



Vent
11 KM/H
7 MPH
3 M/S
6 KTS



130°
SE
Conditions actuelles

Mostly Cloudy Plutôt nuageux
Pression 1015 (hPa) - 29.96 (inHg)
Visibilité 6 (mile) - 10 (km)
Aéroport
Code de l'aéroport LFLY

Emplacement: LYON Saint Exupéry
Distance: 70 (km)

Metar:
METAR LFLY 150800Z AUTO 13006KT 100V170 9999 FEW014 SCT052 BKN064 17/13 Q1015 NOSIG

Temps: 15-06-2024 10:00 CEST